createdAt,value
2018-05-21T00:00:59.482Z,95597.19
2018-05-21T00:03:28.503Z,95599.34
2018-05-21T00:05:56.763Z,95595.89
2018-05-21T00:08:25.035Z,95600.88
2018-05-21T00:10:53.456Z,95595.80
2018-05-21T00:13:21.734Z,95593.64
2018-05-21T00:15:49.974Z,95591.24
2018-05-21T00:18:18.283Z,95594.98
2018-05-21T00:20:46.588Z,95597.56
2018-05-21T00:23:15.605Z,95599.61
2018-05-21T00:25:43.870Z,95590.48
2018-05-21T00:28:12.917Z,95588.98
2018-05-21T00:30:41.213Z,95593.30
2018-05-21T00:33:10.221Z,95595.05
2018-05-21T00:35:38.463Z,95582.95
2018-05-21T00:38:06.749Z,95581.91
2018-05-21T00:40:35.012Z,95579.35
2018-05-21T00:43:03.270Z,95578.95
2018-05-21T00:45:31.528Z,95578.46
2018-05-21T00:47:59.855Z,95578.48
2018-05-21T00:50:28.132Z,95583.33
2018-05-21T00:52:57.922Z,95574.75
2018-05-21T00:55:38.321Z,95574.75
2018-05-21T00:58:06.577Z,95573.98
2018-05-21T01:00:34.826Z,95567.91
2018-05-21T01:03:03.081Z,95566.45
2018-05-21T01:05:31.338Z,95556.94
2018-05-21T01:08:00.372Z,95555.19
2018-05-21T01:10:28.682Z,95555.59
2018-05-21T01:12:57.722Z,95554.41
2018-05-21T01:15:26.053Z,95551.98
2018-05-21T01:17:54.329Z,95550.11
2018-05-21T01:20:22.613Z,95544.91
2018-05-21T01:22:51.647Z,95553.66
2018-05-21T01:25:19.939Z,95550.33
2018-05-21T01:27:48.214Z,95552.03
2018-05-21T01:30:16.545Z,95541.84
2018-05-21T01:32:45.615Z,95550.16
2018-05-21T01:35:13.916Z,95551.27
2018-05-21T01:37:42.995Z,95556.11
2018-05-21T01:40:12.038Z,95556.52
2018-05-21T01:42:40.311Z,95554.28
2018-05-21T01:45:08.590Z,95549.84
2018-05-21T01:47:36.869Z,95549.84
2018-05-21T01:50:05.150Z,95547.16
2018-05-21T01:52:33.434Z,95543.27
2018-05-21T01:55:01.707Z,95543.52
2018-05-21T01:57:30.025Z,95536.95
2018-05-21T01:59:58.308Z,95536.27
2018-05-21T02:02:28.106Z,95536.80
2018-05-21T02:04:56.389Z,95536.67
2018-05-21T02:07:24.673Z,95543.14
2018-05-21T02:09:52.948Z,95544.89
2018-05-21T02:12:21.212Z,95545.05
2018-05-21T02:14:49.485Z,95544.23
2018-05-21T02:17:17.918Z,95544.48
2018-05-21T02:19:46.195Z,95550.27
2018-05-21T02:22:14.477Z,95544.48
2018-05-21T02:24:42.749Z,95546.52
2018-05-21T02:27:11.023Z,95539.27
2018-05-21T02:29:39.316Z,95538.88
2018-05-21T02:32:07.614Z,95545.33
2018-05-21T02:34:35.892Z,95545.05
2018-05-21T02:37:04.184Z,95545.20
2018-05-21T02:42:08.678Z,95544.92
2018-05-21T02:44:36.943Z,95550.45
2018-05-21T02:47:05.387Z,95551.38
2018-05-21T02:49:35.167Z,95549.38
2018-05-21T02:52:03.440Z,95545.48
2018-05-21T02:54:31.836Z,95548.82
2018-05-21T02:57:00.129Z,95539.17
2018-05-21T02:59:28.405Z,95539.58
2018-05-21T03:01:57.454Z,95534.74
2018-05-21T03:04:25.743Z,95540.02
2018-05-21T03:06:54.006Z,95534.38
2018-05-21T03:09:22.282Z,95531.30
2018-05-21T03:11:50.542Z,95530.08
2018-05-21T03:14:18.872Z,95530.20
2018-05-21T03:16:47.149Z,95531.14
2018-05-21T03:19:15.490Z,95528.61
2018-05-21T03:21:43.767Z,95529.83
2018-05-21T03:24:12.082Z,95529.00
2018-05-21T03:26:40.357Z,95531.56
2018-05-21T03:29:09.397Z,95536.39
2018-05-21T03:31:37.675Z,95538.27
2018-05-21T03:34:05.943Z,95530.37
2018-05-21T03:36:34.997Z,95530.88
2018-05-21T03:39:04.046Z,95534.11
2018-05-21T03:41:32.352Z,95533.17
2018-05-21T03:44:00.644Z,95535.32
2018-05-21T03:46:30.456Z,95533.17
2018-05-21T03:48:58.741Z,95539.88
2018-05-21T03:51:28.522Z,95548.60
2018-05-21T03:53:56.812Z,95545.09
2018-05-21T03:56:25.616Z,95544.57
2018-05-21T03:59:11.610Z,95541.51
2018-05-21T04:01:59.549Z,95543.63
2018-05-21T04:04:27.842Z,95545.37
2018-05-21T04:06:56.090Z,95543.38
2018-05-21T04:09:25.165Z,95550.34
2018-05-21T04:11:53.529Z,95551.16
2018-05-21T04:14:21.705Z,95546.58
2018-05-21T04:16:49.991Z,95553.97
2018-05-21T04:19:18.290Z,95551.81
2018-05-21T04:21:46.567Z,95549.95
2018-05-21T04:24:16.387Z,95546.84
2018-05-21T04:26:46.198Z,95547.78
2018-05-21T04:29:15.231Z,95549.13
2018-05-21T04:31:43.508Z,95552.34
2018-05-21T04:34:11.783Z,95549.92
2018-05-21T04:36:40.060Z,95548.45
2018-05-21T04:39:08.330Z,95551.67
2018-05-21T04:41:37.699Z,95552.48
2018-05-21T04:44:06.733Z,95549.11
2018-05-21T04:46:34.999Z,95553.02
2018-05-21T04:49:04.302Z,95548.87
2018-05-21T04:51:33.349Z,95548.84
2018-05-21T04:54:01.608Z,95550.59
2018-05-21T04:56:29.894Z,95545.50
2018-05-21T04:58:58.194Z,95552.06
2018-05-21T05:01:27.221Z,95555.40
2018-05-21T05:03:55.504Z,95555.16
2018-05-21T05:06:23.930Z,95552.84
2018-05-21T05:08:52.205Z,95552.44
2018-05-21T05:11:20.495Z,95548.04
2018-05-21T05:13:50.300Z,95538.46
2018-05-21T05:16:18.535Z,95543.02
2018-05-21T05:18:46.776Z,95546.14
2018-05-21T05:21:15.815Z,95546.14
2018-05-21T05:23:44.055Z,95537.28
2018-05-21T05:26:13.069Z,95535.13
2018-05-21T05:28:41.341Z,95539.93
2018-05-21T05:31:09.594Z,95541.92
2018-05-21T05:33:38.666Z,95538.42
2018-05-21T05:36:07.787Z,95542.32
2018-05-21T05:38:36.006Z,95541.09
2018-05-21T05:41:04.305Z,95539.34
2018-05-21T05:43:33.348Z,95532.10
2018-05-21T05:46:01.622Z,95519.48
2018-05-21T05:48:29.892Z,95525.67
2018-05-21T05:50:58.332Z,95529.98
2018-05-21T05:53:26.608Z,95533.16
2018-05-21T05:55:56.409Z,95532.70
2018-05-21T05:58:24.706Z,95535.39
2018-05-21T06:00:52.981Z,95533.52
2018-05-21T06:03:21.323Z,95531.98
2018-05-21T06:05:49.627Z,95535.86
2018-05-21T06:08:17.884Z,95533.05
2018-05-21T06:10:46.164Z,95523.10
2018-05-21T06:13:14.760Z,95526.96
2018-05-21T06:15:43.037Z,95530.30
2018-05-21T06:18:11.399Z,95524.39
2018-05-21T06:20:39.694Z,95532.67
2018-05-21T06:23:07.986Z,95527.23
2018-05-21T06:25:36.287Z,95522.06
2018-05-21T06:28:04.598Z,95528.44
2018-05-21T06:30:32.892Z,95528.66
2018-05-21T06:33:01.176Z,95525.65
2018-05-21T06:35:29.453Z,95526.31
2018-05-21T06:37:57.729Z,95518.87
2018-05-21T06:40:26.085Z,95521.23
2018-05-21T06:42:54.369Z,95523.23
2018-05-21T06:45:22.677Z,95523.90
2018-05-21T06:47:51.784Z,95513.28
2018-05-21T06:50:19.998Z,95512.86
2018-05-21T06:52:48.409Z,95512.91
2018-05-21T06:55:17.516Z,95513.42
2018-05-21T06:57:46.554Z,95511.74
2018-05-21T07:00:14.821Z,95516.61
2018-05-21T07:02:43.368Z,95509.84
2018-05-21T07:05:13.155Z,95513.98
2018-05-21T07:07:41.467Z,95514.80
2018-05-21T07:10:10.489Z,95513.78
2018-05-21T07:12:38.764Z,95512.46
2018-05-21T07:15:07.070Z,95516.28
2018-05-21T07:17:35.458Z,95526.57
2018-05-21T07:20:03.699Z,95526.57
2018-05-21T07:22:31.941Z,95514.66
2018-05-21T07:25:00.993Z,95516.56
2018-05-21T07:27:29.302Z,95512.39
2018-05-21T07:29:58.363Z,95522.52
2018-05-21T07:32:26.649Z,95515.93
2018-05-21T07:34:54.949Z,95519.93
2018-05-21T07:37:24.746Z,95513.27
2018-05-21T07:39:53.039Z,95508.33
2018-05-21T07:42:21.305Z,95505.61
2018-05-21T07:44:49.591Z,95509.32
2018-05-21T07:47:17.903Z,95502.28
2018-05-21T07:49:46.958Z,95505.23
2018-05-21T07:52:15.229Z,95498.54
2018-05-21T07:54:43.511Z,95502.70
2018-05-21T07:57:11.791Z,95487.00
2018-05-21T07:59:41.597Z,95491.28
2018-05-21T08:02:09.863Z,95483.81
2018-05-21T08:04:38.147Z,95485.68
2018-05-21T08:07:06.439Z,95491.31
2018-05-21T08:09:34.707Z,95486.76
2018-05-21T08:12:03.164Z,95484.52
2018-05-21T08:14:31.557Z,95474.25
2018-05-21T08:17:01.322Z,95476.92
2018-05-21T08:19:29.552Z,95470.89
2018-05-21T08:21:59.357Z,95471.78
2018-05-21T08:24:27.600Z,95471.98
2018-05-21T08:26:55.893Z,95474.05
2018-05-21T08:29:24.134Z,95471.34
2018-05-21T08:31:52.406Z,95471.66
2018-05-21T08:34:20.676Z,95467.27
2018-05-21T08:36:49.692Z,95467.16
2018-05-21T08:39:17.928Z,95466.71
2018-05-21T08:41:46.984Z,95465.32
2018-05-21T08:44:15.215Z,95468.51
2018-05-21T08:46:44.225Z,95467.06
2018-05-21T08:49:12.498Z,95464.81
2018-05-21T08:51:40.774Z,95464.93
2018-05-21T08:54:09.073Z,95467.27
2018-05-21T08:56:37.391Z,95458.00
2018-05-21T08:59:05.607Z,95456.28
2018-05-21T09:01:33.885Z,95455.17
2018-05-21T09:04:02.315Z,95451.03
2018-05-21T09:06:30.542Z,95461.08
2018-05-21T09:08:58.803Z,95450.13
2018-05-21T09:11:27.062Z,95456.17
2018-05-21T09:13:56.093Z,95448.48
2018-05-21T09:16:24.402Z,95446.41
2018-05-21T09:18:52.623Z,95451.58
2018-05-21T09:21:20.921Z,95448.77
2018-05-21T09:23:49.177Z,95450.02
2018-05-21T09:26:17.609Z,95448.52
2018-05-21T09:28:45.853Z,95444.31
2018-05-21T09:31:14.087Z,95440.22
2018-05-21T09:33:43.102Z,95437.52
2018-05-21T09:36:11.377Z,95442.34
2018-05-21T09:38:39.655Z,95437.02
2018-05-21T09:41:07.922Z,95436.31
2018-05-21T09:43:36.938Z,95436.97
2018-05-21T09:46:05.217Z,95439.61
2018-05-21T09:48:33.518Z,95435.37
2018-05-21T09:51:01.772Z,95431.56
2018-05-21T09:53:30.007Z,95434.13
2018-05-21T09:55:59.055Z,95432.34
2018-05-21T09:58:27.301Z,95430.06
2018-05-21T10:00:55.550Z,95435.48
2018-05-21T10:03:24.590Z,95428.47
2018-05-21T10:05:52.856Z,95426.02
2018-05-21T10:08:21.290Z,95424.25
2018-05-21T10:10:50.341Z,95421.70
2018-05-21T10:13:18.619Z,95423.44
2018-05-21T10:15:47.153Z,95425.23
2018-05-21T10:18:15.408Z,95419.31
2018-05-21T10:20:44.425Z,95420.89
2018-05-21T10:23:13.593Z,95415.23
2018-05-21T10:25:41.848Z,95414.67
2018-05-21T10:28:10.136Z,95410.17
2018-05-21T10:30:38.387Z,95407.52
2018-05-21T10:33:06.720Z,95408.48
2018-05-21T10:35:35.707Z,95404.94
2018-05-21T10:38:03.966Z,95411.19
2018-05-21T10:40:32.240Z,95397.14
2018-05-21T10:43:00.596Z,95403.70
2018-05-21T10:45:28.836Z,95407.39
2018-05-21T10:47:57.875Z,95394.02
2018-05-21T10:50:26.122Z,95397.20
2018-05-21T10:52:54.411Z,95395.95
2018-05-21T10:55:22.632Z,95389.77
2018-05-21T10:57:51.663Z,95382.30
2018-05-21T11:00:19.927Z,95392.58
2018-05-21T11:02:48.955Z,95390.21
2018-05-21T11:05:18.645Z,95384.97
2018-05-21T11:07:46.898Z,95381.70
2018-05-21T11:10:15.914Z,95375.41
2018-05-21T11:12:45.062Z,95380.38
2018-05-21T11:15:14.084Z,95374.83
2018-05-21T11:17:43.077Z,95376.81
2018-05-21T11:20:12.118Z,95386.64
2018-05-21T11:22:40.358Z,95375.04
2018-05-21T11:25:08.610Z,95375.09
2018-05-21T11:27:37.766Z,95376.00
2018-05-21T11:30:06.051Z,95372.63
2018-05-21T11:32:34.282Z,95368.73
2018-05-21T11:35:02.555Z,95366.00
2018-05-21T11:37:30.799Z,95360.62
2018-05-21T11:39:59.808Z,95363.83
2018-05-21T11:42:28.064Z,95362.02
2018-05-21T11:44:57.083Z,95362.17
2018-05-21T11:47:26.087Z,95358.20
2018-05-21T11:49:54.374Z,95354.91
2018-05-21T11:52:22.639Z,95354.52
2018-05-21T11:54:50.926Z,95345.98
2018-05-21T11:57:19.198Z,95346.98
2018-05-21T11:59:47.453Z,95347.34
2018-05-21T12:02:16.502Z,95342.67
2018-05-21T12:04:44.739Z,95336.13
2018-05-21T12:07:12.986Z,95337.09
2018-05-21T12:09:42.046Z,95330.89
2018-05-21T12:12:10.627Z,95326.72
2018-05-21T12:14:38.862Z,95325.51
2018-05-21T12:17:07.112Z,95330.02
2018-05-21T12:19:36.419Z,95330.03
2018-05-21T12:22:05.428Z,95330.03
2018-05-21T12:24:34.466Z,95334.34
2018-05-21T12:27:02.725Z,95325.77
2018-05-21T12:29:30.978Z,95320.55
2018-05-21T12:31:59.214Z,95325.77
2018-05-21T12:34:29.111Z,95321.53
2018-05-21T12:36:57.355Z,95321.74
2018-05-21T12:39:25.587Z,95325.16
2018-05-21T12:41:54.023Z,95320.17
2018-05-21T12:44:22.295Z,95318.30
2018-05-21T12:46:50.603Z,95318.77
2018-05-21T12:49:18.811Z,95318.66
2018-05-21T12:51:47.837Z,95312.72
2018-05-21T12:54:16.081Z,95315.13
2018-05-21T12:56:44.326Z,95312.45
2018-05-21T12:59:13.363Z,95309.76
2018-05-21T13:01:42.377Z,95312.45
2018-05-21T13:04:10.629Z,95304.89
2018-05-21T13:06:38.895Z,95298.05
2018-05-21T13:09:08.050Z,95295.00
2018-05-21T13:11:36.281Z,95299.44
2018-05-21T13:14:04.530Z,95296.33
2018-05-21T13:16:34.278Z,95297.34
2018-05-21T13:19:02.542Z,95288.48
2018-05-21T13:21:30.773Z,95285.59
2018-05-21T13:23:59.782Z,95287.12
2018-05-21T13:26:29.162Z,95294.27
2018-05-21T13:28:57.423Z,95288.20
2018-05-21T13:31:25.665Z,95289.34
2018-05-21T13:33:54.675Z,95288.05
2018-05-21T13:36:22.914Z,95278.84
2018-05-21T13:38:51.925Z,95280.16
2018-05-21T13:41:20.942Z,95275.84
2018-05-21T13:43:49.200Z,95273.25
2018-05-21T13:46:17.441Z,95268.72
2018-05-21T13:48:46.446Z,95261.52
2018-05-21T13:51:15.460Z,95261.24
2018-05-21T13:53:43.701Z,95257.56
2018-05-21T13:56:12.721Z,95256.36
2018-05-21T13:58:41.749Z,95249.91
2018-05-21T14:01:09.998Z,95252.81
2018-05-21T14:03:38.241Z,95250.88
2018-05-21T14:06:06.479Z,95236.37
2018-05-21T14:08:34.733Z,95243.44
2018-05-21T14:11:02.973Z,95242.20
2018-05-21T14:13:31.977Z,95235.20
2018-05-21T14:16:01.142Z,95237.29
2018-05-21T14:18:29.380Z,95237.37
2018-05-21T14:20:57.627Z,95233.52
2018-05-21T14:23:26.645Z,95222.42
2018-05-21T14:25:54.886Z,95214.37
2018-05-21T14:28:23.118Z,95218.08
2018-05-21T14:30:51.537Z,95219.37
2018-05-21T14:33:19.841Z,95216.03
2018-05-21T14:35:48.031Z,95221.06
2018-05-21T14:38:18.307Z,95218.56
2018-05-21T14:40:47.314Z,95220.22
2018-05-21T14:43:16.323Z,95213.19
2018-05-21T14:45:44.709Z,95215.72
2018-05-21T14:48:13.002Z,95210.09
2018-05-21T14:50:41.233Z,95209.97
2018-05-21T14:53:10.453Z,95217.85
2018-05-21T14:55:38.691Z,95206.08
2018-05-21T14:58:06.924Z,95215.68
2018-05-21T15:00:35.312Z,95212.27
2018-05-21T15:03:03.550Z,95223.94
2018-05-21T15:05:32.557Z,95241.14
2018-05-21T15:08:00.807Z,95236.98
2018-05-21T15:10:29.818Z,95230.45
2018-05-21T15:12:58.062Z,95231.05
2018-05-21T15:15:27.061Z,95224.02
2018-05-21T15:17:55.623Z,95226.88
2018-05-21T15:20:23.866Z,95226.23
2018-05-21T15:22:52.105Z,95221.94
2018-05-21T15:25:21.126Z,95230.30
2018-05-21T15:27:49.714Z,95225.61
2018-05-21T15:30:17.955Z,95227.44
2018-05-21T15:32:46.958Z,95226.88
2018-05-21T15:35:15.980Z,95228.47
2018-05-21T15:37:44.210Z,95228.80
2018-05-21T15:40:12.452Z,95232.81
2018-05-21T15:42:40.697Z,95242.77
2018-05-21T15:45:08.935Z,95240.13
2018-05-21T15:47:37.169Z,95235.81
2018-05-21T15:50:05.417Z,95242.02
2018-05-21T15:52:33.654Z,95239.18
2018-05-21T15:55:01.902Z,95239.09
2018-05-21T15:57:30.186Z,95234.57
2018-05-21T15:59:58.369Z,95237.53
2018-05-21T16:02:26.615Z,95243.06
2018-05-21T16:04:54.854Z,95241.33
2018-05-21T16:07:23.869Z,95237.02
2018-05-21T16:09:52.271Z,95242.62
2018-05-21T16:12:20.506Z,95237.91
2018-05-21T16:14:49.514Z,95243.73
2018-05-21T16:17:17.766Z,95235.98
2018-05-21T16:19:46.779Z,95236.86
2018-05-21T16:22:15.020Z,95235.84
2018-05-21T16:24:43.267Z,95231.75
2018-05-21T16:27:11.507Z,95233.84
2018-05-21T16:29:39.764Z,95220.98
2018-05-21T16:32:08.761Z,95227.77
2018-05-21T16:34:37.757Z,95222.66
2018-05-21T16:37:06.766Z,95227.30
2018-05-21T16:39:34.997Z,95229.13
2018-05-21T16:42:03.242Z,95227.63
2018-05-21T16:44:31.478Z,95227.70
2018-05-21T16:47:00.057Z,95222.59
2018-05-21T16:49:29.066Z,95215.73
2018-05-21T16:51:57.302Z,95225.33
2018-05-21T16:54:25.750Z,95230.27
2018-05-21T16:56:53.989Z,95228.98
2018-05-21T16:59:22.232Z,95232.32
2018-05-21T17:01:50.515Z,95227.00
2018-05-21T17:04:19.535Z,95222.81
2018-05-21T17:06:47.774Z,95216.44
2018-05-21T17:09:16.331Z,95214.84
2018-05-21T17:11:44.566Z,95211.73
2018-05-21T17:14:12.814Z,95210.12
2018-05-21T17:16:41.057Z,95214.55
2018-05-21T17:19:09.295Z,95210.70
2018-05-21T17:21:37.541Z,95211.24
2018-05-21T17:24:05.785Z,95212.59
2018-05-21T17:26:34.228Z,95210.03
2018-05-21T17:29:02.468Z,95214.13
2018-05-21T17:31:30.693Z,95209.97
2018-05-21T17:33:58.946Z,95209.56
2018-05-21T17:36:27.186Z,95209.58
2018-05-21T17:38:55.419Z,95216.20
2018-05-21T17:41:23.877Z,95213.41
2018-05-21T17:43:52.111Z,95208.34
2018-05-21T17:46:20.345Z,95207.64
2018-05-21T17:48:48.613Z,95212.89
2018-05-21T17:51:16.851Z,95204.61
2018-05-21T17:53:45.098Z,95208.22
2018-05-21T17:56:13.334Z,95208.96
2018-05-21T17:58:41.574Z,95209.53
2018-05-21T18:01:09.807Z,95208.59
2018-05-21T18:03:38.086Z,95212.80
2018-05-21T18:06:06.309Z,95203.97
2018-05-21T18:08:35.326Z,95216.48
2018-05-21T18:11:03.578Z,95214.59
2018-05-21T18:13:32.580Z,95207.25
2018-05-21T18:16:01.590Z,95208.77
2018-05-21T18:18:29.839Z,95210.94
2018-05-21T18:20:58.267Z,95206.95
2018-05-21T18:23:26.519Z,95203.94
2018-05-21T18:25:54.764Z,95209.18
2018-05-21T18:28:23.007Z,95212.52
2018-05-21T18:30:51.257Z,95215.92
2018-05-21T18:33:19.828Z,95219.42
2018-05-21T18:35:48.898Z,95218.15
2018-05-21T18:38:17.082Z,95215.99
2018-05-21T18:40:46.114Z,95215.44
2018-05-21T18:43:14.354Z,95220.77
2018-05-21T18:45:43.359Z,95213.59
2018-05-21T18:48:12.365Z,95215.75
2018-05-21T18:50:40.939Z,95219.33
2018-05-21T18:53:09.182Z,95220.59
2018-05-21T18:55:37.517Z,95223.91
2018-05-21T18:58:05.869Z,95223.20
2018-05-21T19:00:35.071Z,95220.71
2018-05-21T19:03:04.075Z,95219.81
2018-05-21T19:05:32.329Z,95220.27
2018-05-21T19:08:01.385Z,95225.27
2018-05-21T19:10:29.628Z,95227.33
2018-05-21T19:12:57.891Z,95228.81
2018-05-21T19:15:26.466Z,95226.53
2018-05-21T19:17:54.707Z,95222.85
2018-05-21T19:20:22.947Z,95229.45
2018-05-21T19:22:51.205Z,95220.37
2018-05-21T19:25:19.433Z,95216.52
2018-05-21T19:27:47.679Z,95214.59
2018-05-21T19:30:15.925Z,95218.31
2018-05-21T19:32:44.179Z,95220.45
2018-05-21T19:35:12.472Z,95219.73
2018-05-21T19:37:40.718Z,95218.71
2018-05-21T19:40:09.343Z,95218.00
2018-05-21T19:42:37.586Z,95219.33
2018-05-21T19:45:06.594Z,95217.14
2018-05-21T19:47:34.842Z,95227.05
2018-05-21T19:50:03.898Z,95228.57
2018-05-21T19:52:32.163Z,95227.56
2018-05-21T19:55:00.438Z,95231.36
2018-05-21T19:57:28.674Z,95228.72
2018-05-21T19:59:57.757Z,95237.32
2018-05-21T20:02:25.967Z,95237.63
2018-05-21T20:04:54.295Z,95236.88
2018-05-21T20:07:23.421Z,95235.36
2018-05-21T20:09:51.754Z,95237.72
2018-05-21T20:12:19.990Z,95240.19
2018-05-21T20:14:48.494Z,95235.23
2018-05-21T20:17:16.776Z,95241.94
2018-05-21T20:19:45.011Z,95236.47
2018-05-21T20:22:14.029Z,95243.00
2018-05-21T20:24:42.351Z,95244.17
2018-05-21T20:27:10.592Z,95243.91
2018-05-21T20:29:38.843Z,95243.05
2018-05-21T20:32:07.102Z,95243.02
2018-05-21T20:37:11.631Z,95239.75
2018-05-21T20:39:39.806Z,95240.10
2018-05-21T20:42:08.814Z,95242.72
2018-05-21T20:44:37.817Z,95241.05
2018-05-21T20:47:06.073Z,95238.92
2018-05-21T20:49:35.095Z,95241.22
2018-05-21T20:52:03.353Z,95242.41
2018-05-21T20:54:32.369Z,95242.87
2018-05-21T20:57:00.610Z,95239.09
2018-05-21T20:59:29.627Z,95241.70
2018-05-21T21:01:57.908Z,95240.77
2018-05-21T21:04:26.166Z,95244.78
2018-05-21T21:06:55.179Z,95243.73
2018-05-21T21:09:23.605Z,95248.06
2018-05-21T21:11:51.892Z,95245.37
2018-05-21T21:14:20.125Z,95245.94
2018-05-21T21:16:48.498Z,95245.45
2018-05-21T21:19:16.718Z,95240.50
2018-05-21T21:21:45.034Z,95239.11
2018-05-21T21:24:13.227Z,95238.98
2018-05-21T21:26:41.467Z,95239.02
2018-05-21T21:29:10.477Z,95233.37
2018-05-21T21:31:38.721Z,95231.56
2018-05-21T21:34:06.987Z,95233.45
2018-05-21T21:36:35.231Z,95233.63
2018-05-21T21:39:03.777Z,95235.70
2018-05-21T21:41:32.142Z,95223.02
2018-05-21T21:44:01.236Z,95225.75
2018-05-21T21:46:29.512Z,95228.28
2018-05-21T21:48:58.522Z,95224.77
2018-05-21T21:51:26.779Z,95229.23
2018-05-21T21:53:55.010Z,95223.83
2018-05-21T21:56:23.250Z,95220.78
2018-05-21T21:58:52.450Z,95219.59
2018-05-21T22:01:20.685Z,95218.39
2018-05-21T22:03:48.924Z,95217.48
2018-05-21T22:06:17.575Z,95214.74
2018-05-21T22:08:46.576Z,95212.44
2018-05-21T22:11:14.818Z,95212.58
2018-05-21T22:13:43.062Z,95213.64
2018-05-21T22:16:11.313Z,95210.59
2018-05-21T22:18:39.555Z,95210.53
2018-05-21T22:21:08.571Z,95204.50
2018-05-21T22:23:36.820Z,95206.35
2018-05-21T22:26:05.067Z,95211.30
2018-05-21T22:28:33.523Z,95211.20
2018-05-21T22:31:01.770Z,95203.55
2018-05-21T22:33:30.776Z,95204.50
2018-05-21T22:35:59.030Z,95207.14
2018-05-21T22:38:28.033Z,95206.23
2018-05-21T22:40:57.040Z,95211.03
2018-05-21T22:43:25.292Z,95212.47
2018-05-21T22:45:54.304Z,95209.13
2018-05-21T22:48:23.403Z,95205.94
2018-05-21T22:50:51.880Z,95202.23
2018-05-21T22:53:20.109Z,95201.47
2018-05-21T22:55:48.344Z,95194.42
2018-05-21T22:58:16.818Z,95201.61
2018-05-21T23:00:45.051Z,95202.19
2018-05-21T23:03:13.282Z,95199.53
2018-05-21T23:05:41.533Z,95201.02
2018-05-21T23:08:09.778Z,95197.45
2018-05-21T23:10:38.019Z,95198.70
2018-05-21T23:13:06.591Z,95199.45
2018-05-21T23:15:34.834Z,95200.53
2018-05-21T23:18:03.833Z,95201.59
2018-05-21T23:20:32.849Z,95202.39
2018-05-21T23:23:01.081Z,95202.13
2018-05-21T23:25:29.434Z,95199.09
2018-05-21T23:27:57.731Z,95202.91
2018-05-21T23:30:25.952Z,95206.05
2018-05-21T23:32:54.337Z,95203.62
2018-05-21T23:35:22.577Z,95202.18
2018-05-21T23:37:51.581Z,95204.45
2018-05-21T23:40:20.602Z,95207.44
2018-05-21T23:42:48.841Z,95197.37
2018-05-21T23:45:17.842Z,95210.20
2018-05-21T23:47:46.858Z,95205.69
2018-05-21T23:50:15.970Z,95206.16
2018-05-21T23:52:44.223Z,95210.71
2018-05-21T23:55:13.452Z,95199.42
2018-05-21T23:57:41.695Z,95198.25
